createdAt,value
2024-05-09T00:00:44.987Z,2.30
2024-05-09T00:03:32.931Z,2.20
2024-05-09T00:06:01.073Z,2.30
2024-05-09T00:08:29.130Z,2.40
2024-05-09T00:10:57.108Z,2.50
2024-05-09T00:13:25.038Z,2.90
2024-05-09T00:15:52.812Z,2.20
2024-05-09T00:18:20.695Z,2.30
2024-05-09T00:20:48.744Z,2.40
2024-05-09T00:23:16.604Z,2.20
2024-05-09T00:25:44.956Z,2.20
2024-05-09T00:28:14.006Z,2.30
2024-05-09T00:30:41.813Z,2.20
2024-05-09T00:33:11.168Z,2.30
2024-05-09T00:35:39.994Z,2.50
2024-05-09T00:38:08.177Z,2.60
2024-05-09T00:40:42.220Z,2.40
2024-05-09T00:43:12.955Z,2.10
2024-05-09T00:45:42.532Z,2.30
2024-05-09T00:48:14.944Z,2.50
2024-05-09T00:50:46.353Z,2.30
2024-05-09T00:53:17.195Z,2.70
2024-05-09T00:58:16.534Z,2.30
2024-05-09T01:03:13.915Z,2.40
2024-05-09T01:05:43.731Z,2.40
2024-05-09T01:08:13.061Z,2.10
2024-05-09T01:10:44.121Z,2.30
2024-05-09T01:13:13.983Z,2.10
2024-05-09T01:15:42.241Z,2.00
2024-05-09T01:18:12.151Z,1.80
2024-05-09T01:20:44.012Z,2.00
2024-05-09T01:23:15.225Z,1.90
2024-05-09T01:25:46.194Z,2.10
2024-05-09T01:28:15.013Z,2.00
2024-05-09T01:30:42.823Z,1.80
2024-05-09T01:33:12.131Z,1.60
2024-05-09T01:35:42.287Z,1.80
2024-05-09T01:38:17.077Z,1.60
2024-05-09T01:40:45.488Z,1.90
2024-05-09T01:43:13.527Z,1.70
2024-05-09T01:45:41.666Z,1.90
2024-05-09T01:48:10.990Z,1.70
2024-05-09T01:50:42.184Z,1.90
2024-05-09T01:53:14.094Z,1.70
2024-05-09T01:55:43.003Z,1.80
2024-05-09T01:58:10.954Z,2.00
2024-05-09T02:00:42.292Z,1.80
2024-05-09T02:03:15.739Z,1.70
2024-05-09T02:05:47.734Z,1.60
2024-05-09T02:08:20.941Z,1.40
2024-05-09T02:10:50.216Z,1.60
2024-05-09T02:13:18.755Z,1.50
2024-05-09T02:15:46.759Z,1.50
2024-05-09T02:18:14.701Z,1.40
2024-05-09T02:20:43.421Z,1.50
2024-05-09T02:23:12.256Z,1.50
2024-05-09T02:25:41.892Z,1.40
2024-05-09T02:28:09.731Z,1.30
2024-05-09T02:30:40.882Z,1.40
2024-05-09T02:33:12.325Z,1.40
2024-05-09T02:35:43.685Z,1.50
2024-05-09T02:38:12.959Z,1.60
2024-05-09T02:40:41.348Z,1.50
2024-05-09T02:43:12.746Z,1.30
2024-05-09T02:45:41.215Z,1.80
2024-05-09T02:48:13.413Z,1.80
2024-05-09T02:50:44.035Z,1.90
2024-05-09T02:53:12.514Z,1.50
2024-05-09T02:55:41.185Z,1.40
2024-05-09T02:58:10.202Z,1.70
2024-05-09T03:00:41.419Z,1.50
2024-05-09T03:03:13.545Z,1.50
2024-05-09T03:05:44.900Z,1.70
2024-05-09T03:08:13.253Z,1.70
2024-05-09T03:10:41.264Z,1.60
2024-05-09T03:13:11.710Z,1.70
2024-05-09T03:15:39.818Z,1.60
2024-05-09T03:18:07.866Z,1.70
2024-05-09T03:20:36.941Z,1.80
2024-05-09T03:23:07.497Z,1.80
2024-05-09T03:25:35.837Z,1.60
2024-05-09T03:28:04.185Z,1.50
2024-05-09T03:30:39.930Z,1.80
2024-05-09T03:33:12.204Z,1.60
2024-05-09T03:38:09.244Z,1.50
2024-05-09T03:40:43.837Z,1.50
2024-05-09T03:43:13.121Z,1.60
2024-05-09T03:45:42.012Z,1.40
2024-05-09T03:48:10.153Z,1.50
2024-05-09T03:50:38.383Z,1.60
2024-05-09T03:53:09.714Z,1.80
2024-05-09T03:55:37.563Z,1.50
2024-05-09T03:58:07.572Z,1.40
2024-05-09T04:00:39.145Z,1.80
2024-05-09T04:03:10.916Z,1.50
2024-05-09T04:05:42.583Z,1.50
2024-05-09T04:08:11.646Z,1.40
2024-05-09T04:10:40.370Z,1.40
2024-05-09T04:13:09.232Z,1.60
2024-05-09T04:15:36.989Z,1.40
2024-05-09T04:18:05.336Z,1.60
2024-05-09T04:20:38.553Z,1.70
2024-05-09T04:23:13.545Z,1.60
2024-05-09T04:25:44.235Z,1.50
2024-05-09T04:28:13.012Z,1.70
2024-05-09T04:30:41.832Z,1.90
2024-05-09T04:33:12.659Z,1.60
2024-05-09T04:35:43.492Z,1.70
2024-05-09T04:38:15.709Z,1.70
2024-05-09T04:40:43.964Z,1.60
2024-05-09T04:43:17.079Z,1.50
2024-05-09T04:45:45.513Z,1.70
2024-05-09T04:48:13.572Z,1.80
2024-05-09T04:50:41.918Z,1.80
2024-05-09T04:53:11.219Z,1.50
2024-05-09T04:55:40.558Z,1.80
2024-05-09T04:58:09.485Z,1.50
2024-05-09T05:00:39.926Z,1.60
2024-05-09T05:03:12.859Z,1.80
2024-05-09T05:05:45.452Z,1.30
2024-05-09T05:10:43.280Z,1.50
2024-05-09T05:13:24.710Z,1.30
2024-05-09T05:15:56.769Z,1.40
2024-05-09T05:18:27.834Z,1.50
2024-05-09T05:20:56.852Z,1.50
2024-05-09T05:23:24.924Z,1.50
2024-05-09T05:25:53.754Z,1.40
2024-05-09T05:28:22.422Z,1.50
2024-05-09T05:30:50.592Z,1.50
2024-05-09T05:33:19.507Z,1.50
2024-05-09T05:35:47.963Z,1.60
2024-05-09T05:38:15.871Z,1.60
2024-05-09T05:40:43.756Z,1.70
2024-05-09T05:43:18.699Z,1.50
2024-05-09T05:45:46.869Z,1.40
2024-05-09T05:48:18.373Z,1.40
2024-05-09T05:50:46.843Z,1.80
2024-05-09T05:53:14.879Z,1.60
2024-05-09T05:55:42.901Z,1.70
2024-05-09T05:58:11.975Z,1.80
2024-05-09T06:00:41.534Z,1.60
2024-05-09T06:03:12.314Z,2.20
2024-05-09T06:05:43.029Z,2.00
2024-05-09T06:08:11.192Z,2.00
2024-05-09T06:10:40.907Z,1.80
2024-05-09T06:13:13.603Z,1.90
2024-05-09T06:15:42.474Z,2.30
2024-05-09T06:18:11.969Z,1.80
2024-05-09T06:20:41.919Z,1.50
2024-05-09T06:23:11.390Z,1.90
2024-05-09T06:25:39.440Z,1.60
2024-05-09T06:28:07.410Z,1.60
2024-05-09T06:30:41.946Z,1.50
2024-05-09T06:33:14.425Z,1.50
2024-05-09T06:35:44.735Z,1.50
2024-05-09T06:38:13.187Z,1.50
2024-05-09T06:40:43.645Z,1.50
2024-05-09T06:43:18.349Z,1.50
2024-05-09T06:45:54.203Z,1.60
2024-05-09T06:48:22.730Z,1.80
2024-05-09T06:50:50.960Z,2.10
2024-05-09T06:53:23.376Z,1.50
2024-05-09T06:55:51.903Z,1.50
2024-05-09T06:58:20.106Z,1.40
2024-05-09T07:00:48.055Z,1.50
2024-05-09T07:03:18.229Z,1.60
2024-05-09T07:05:48.649Z,1.60
2024-05-09T07:08:18.079Z,1.60
2024-05-09T07:10:46.468Z,1.50
2024-05-09T07:13:15.333Z,1.60
2024-05-09T07:15:43.579Z,1.70
2024-05-09T07:18:13.028Z,1.60
2024-05-09T07:20:41.615Z,1.70
2024-05-09T07:23:10.696Z,1.60
2024-05-09T07:25:40.419Z,1.50
2024-05-09T07:28:21.038Z,1.80
2024-05-09T07:30:48.837Z,1.50
2024-05-09T07:33:18.365Z,1.40
2024-05-09T07:35:46.789Z,1.30
2024-05-09T07:38:14.938Z,1.40
2024-05-09T07:40:42.962Z,1.50
2024-05-09T07:43:14.448Z,1.60
2024-05-09T07:45:51.362Z,1.50
2024-05-09T07:52:39.346Z,1.40
2024-05-09T07:53:49.076Z,1.50
2024-05-09T07:56:23.388Z,1.50
2024-05-09T07:58:53.788Z,1.40
2024-05-09T08:01:22.452Z,1.60
2024-05-09T08:03:50.727Z,1.50
2024-05-09T08:06:18.930Z,1.20
2024-05-09T08:08:47.262Z,1.40
2024-05-09T08:11:15.178Z,1.30
2024-05-09T08:13:43.290Z,1.40
2024-05-09T08:16:11.167Z,1.40
2024-05-09T08:18:39.250Z,1.20
2024-05-09T08:21:07.233Z,1.30
2024-05-09T08:23:36.164Z,1.30
2024-05-09T08:26:04.112Z,1.20
2024-05-09T08:28:31.859Z,1.40
2024-05-09T08:31:01.637Z,1.20
2024-05-09T08:33:30.448Z,1.30
2024-05-09T08:35:58.288Z,1.70
2024-05-09T08:38:26.111Z,1.30
2024-05-09T08:40:53.917Z,1.30
2024-05-09T08:43:24.328Z,1.30
2024-05-09T08:45:52.311Z,1.40
2024-05-09T08:48:23.516Z,1.40
2024-05-09T08:50:55.079Z,1.40
2024-05-09T08:53:22.894Z,1.40
2024-05-09T08:55:51.518Z,1.40
2024-05-09T08:58:20.027Z,1.70
2024-05-09T09:00:48.910Z,1.50
2024-05-09T09:03:26.765Z,1.30
2024-05-09T09:06:01.844Z,1.60
2024-05-09T09:08:29.597Z,1.40
2024-05-09T09:11:00.661Z,1.60
2024-05-09T09:13:28.784Z,1.30
2024-05-09T09:16:00.178Z,1.40
2024-05-09T09:18:30.036Z,1.40
2024-05-09T09:20:58.335Z,1.70
2024-05-09T09:23:29.849Z,1.50
2024-05-09T09:26:01.274Z,1.40
2024-05-09T09:28:29.850Z,1.30
2024-05-09T09:31:03.231Z,1.50
2024-05-09T09:33:31.914Z,1.40
2024-05-09T09:36:02.540Z,1.70
2024-05-09T09:38:31.702Z,1.40
2024-05-09T09:41:04.331Z,1.40
2024-05-09T09:43:33.298Z,1.40
2024-05-09T09:46:02.576Z,1.30
2024-05-09T09:48:31.377Z,1.40
2024-05-09T09:51:00.217Z,1.50
2024-05-09T09:53:33.213Z,1.40
2024-05-09T09:56:03.234Z,1.40
2024-05-09T09:58:34.422Z,1.40
2024-05-09T10:01:02.370Z,1.50
2024-05-09T10:03:31.079Z,1.20
2024-05-09T10:06:01.140Z,1.40
2024-05-09T10:08:29.845Z,1.50
2024-05-09T10:10:57.857Z,1.90
2024-05-09T10:13:33.986Z,1.40
2024-05-09T10:16:08.963Z,1.60
2024-05-09T10:18:40.714Z,1.60
2024-05-09T10:21:18.923Z,1.70
2024-05-09T10:23:59.817Z,1.60
2024-05-09T10:26:35.734Z,1.60
2024-05-09T10:29:16.258Z,1.70
2024-05-09T10:31:45.692Z,1.50
2024-05-09T10:34:21.243Z,1.80
2024-05-09T10:36:55.565Z,1.50
2024-05-09T10:39:25.188Z,1.60
2024-05-09T10:41:52.992Z,1.60
2024-05-09T10:44:21.655Z,1.60
2024-05-09T10:46:50.323Z,1.60
2024-05-09T10:49:18.437Z,1.60
2024-05-09T10:51:47.206Z,1.60
2024-05-09T10:54:14.997Z,1.60
2024-05-09T10:56:42.768Z,1.80
2024-05-09T10:59:12.594Z,1.60
2024-05-09T11:01:40.684Z,2.00
2024-05-09T11:04:09.135Z,1.70
2024-05-09T11:06:38.270Z,1.80
2024-05-09T11:09:06.373Z,1.90
2024-05-09T11:11:34.297Z,1.90
2024-05-09T11:14:14.051Z,1.80
2024-05-09T11:16:41.846Z,1.70
2024-05-09T11:19:13.891Z,1.90
2024-05-09T11:21:42.144Z,2.00
2024-05-09T11:24:11.533Z,1.80
2024-05-09T11:26:39.866Z,1.90
2024-05-09T11:29:07.770Z,2.30
2024-05-09T11:31:46.036Z,2.00
2024-05-09T11:34:14.846Z,2.40
2024-05-09T11:36:42.714Z,1.90
2024-05-09T11:39:11.567Z,2.00
2024-05-09T11:41:39.479Z,2.00
2024-05-09T11:44:07.315Z,2.10
2024-05-09T11:46:35.138Z,2.10
2024-05-09T11:49:03.357Z,1.90
2024-05-09T11:51:31.322Z,2.00
2024-05-09T11:53:59.191Z,1.90
2024-05-09T11:56:27.090Z,2.00
2024-05-09T11:58:54.916Z,1.80
2024-05-09T12:01:25.113Z,1.80
2024-05-09T12:03:54.774Z,2.10
2024-05-09T12:06:22.855Z,2.00
2024-05-09T12:08:50.774Z,2.30
2024-05-09T12:11:18.635Z,2.20
2024-05-09T12:13:46.447Z,2.10
2024-05-09T12:16:14.413Z,1.90
2024-05-09T12:18:42.328Z,2.20
2024-05-09T12:21:10.172Z,2.10
2024-05-09T12:23:37.876Z,1.60
2024-05-09T12:26:05.823Z,1.70
2024-05-09T12:28:33.606Z,1.50
2024-05-09T12:31:01.396Z,1.80
2024-05-09T12:33:29.734Z,2.00
2024-05-09T12:35:57.925Z,1.90
2024-05-09T12:38:25.682Z,1.80
2024-05-09T12:40:53.578Z,1.70
2024-05-09T12:43:21.594Z,1.80
2024-05-09T12:45:49.481Z,1.70
2024-05-09T12:48:17.339Z,1.70
2024-05-09T12:50:45.266Z,1.40
2024-05-09T12:53:13.239Z,1.40
2024-05-09T12:55:48.375Z,1.50
2024-05-09T13:00:53.825Z,1.50
2024-05-09T13:03:22.182Z,1.50
2024-05-09T13:05:51.501Z,1.60
2024-05-09T13:08:19.848Z,1.50
2024-05-09T13:10:48.212Z,1.30
2024-05-09T13:13:16.356Z,1.70
2024-05-09T13:15:44.446Z,1.40
2024-05-09T13:18:12.409Z,1.50
2024-05-09T13:20:40.202Z,2.50
2024-05-09T13:23:08.657Z,3.10
2024-05-09T13:25:38.091Z,3.10
2024-05-09T13:28:07.696Z,2.40
2024-05-09T13:30:40.642Z,2.30
2024-05-09T13:33:11.793Z,1.90
2024-05-09T13:35:47.415Z,1.60
2024-05-09T13:38:19.355Z,1.70
2024-05-09T13:40:48.870Z,1.80
2024-05-09T13:43:17.633Z,1.70
2024-05-09T13:45:46.096Z,1.80
2024-05-09T13:48:14.259Z,2.00
2024-05-09T13:50:42.264Z,1.90
2024-05-09T13:53:09.967Z,1.70
2024-05-09T13:55:38.812Z,1.70
2024-05-09T13:58:08.643Z,1.80
2024-05-09T14:00:46.379Z,2.10
2024-05-09T14:03:19.295Z,1.90
2024-05-09T14:05:50.536Z,1.80
2024-05-09T14:08:19.964Z,2.00
2024-05-09T14:10:52.150Z,1.70
2024-05-09T14:13:20.190Z,2.00
2024-05-09T14:15:48.408Z,1.50
2024-05-09T14:18:16.756Z,1.70
2024-05-09T14:20:44.587Z,1.70
2024-05-09T14:23:12.420Z,2.40
2024-05-09T14:25:42.538Z,1.90
2024-05-09T14:28:12.692Z,1.70
2024-05-09T14:30:42.468Z,1.80
2024-05-09T14:33:11.633Z,1.70
2024-05-09T14:35:39.738Z,1.50
2024-05-09T14:38:08.990Z,1.80
2024-05-09T14:40:42.240Z,1.60
2024-05-09T14:43:13.264Z,1.60
2024-05-09T14:45:42.190Z,1.90
2024-05-09T14:48:11.141Z,1.40
2024-05-09T14:50:40.559Z,1.80
2024-05-09T14:53:10.993Z,1.70
2024-05-09T14:55:40.914Z,1.90
2024-05-09T14:58:10.566Z,1.70
2024-05-09T15:00:47.742Z,1.40
2024-05-09T15:03:19.639Z,1.50
2024-05-09T15:05:48.633Z,1.80
2024-05-09T15:08:18.214Z,1.70
2024-05-09T15:10:47.148Z,1.70
2024-05-09T15:13:16.751Z,1.70
2024-05-09T15:15:45.361Z,1.50
2024-05-09T15:18:14.561Z,1.80
2024-05-09T15:20:43.926Z,1.40
2024-05-09T15:23:11.929Z,1.60
2024-05-09T15:25:40.213Z,1.30
2024-05-09T15:28:08.714Z,1.50
2024-05-09T15:30:37.248Z,1.60
2024-05-09T15:33:07.228Z,1.50
2024-05-09T15:35:36.278Z,1.40
2024-05-09T15:38:04.790Z,1.50
2024-05-09T15:40:39.485Z,1.30
2024-05-09T15:43:11.208Z,1.60
2024-05-09T15:45:41.401Z,1.50
2024-05-09T15:48:10.978Z,1.60
2024-05-09T15:50:41.606Z,1.60
2024-05-09T15:53:12.556Z,1.80
2024-05-09T15:55:42.411Z,1.60
2024-05-09T15:58:11.078Z,1.60
2024-05-09T16:00:42.262Z,1.90
2024-05-09T16:03:13.438Z,1.50
2024-05-09T16:08:14.915Z,1.50
2024-05-09T16:10:45.808Z,1.60
2024-05-09T16:13:16.171Z,1.50
2024-05-09T16:15:44.556Z,1.30
2024-05-09T16:18:12.786Z,1.60
2024-05-09T16:20:42.521Z,1.30
2024-05-09T16:23:12.564Z,1.60
2024-05-09T16:25:45.041Z,1.30
2024-05-09T16:28:13.519Z,1.40
2024-05-09T16:30:41.696Z,1.40
2024-05-09T16:33:11.718Z,1.20
2024-05-09T16:35:40.117Z,1.50
2024-05-09T16:38:07.979Z,1.30
2024-05-09T16:40:39.862Z,1.60
2024-05-09T16:43:10.770Z,1.40
2024-05-09T16:45:44.518Z,1.50
2024-05-09T16:48:13.921Z,1.50
2024-05-09T16:50:42.027Z,1.40
2024-05-09T16:53:09.838Z,1.60
2024-05-09T16:55:38.260Z,1.60
2024-05-09T16:58:08.112Z,1.70
2024-05-09T17:00:41.394Z,1.80
2024-05-09T17:03:14.465Z,1.90
2024-05-09T17:05:45.706Z,1.90
2024-05-09T17:08:16.232Z,1.70
2024-05-09T17:10:50.473Z,2.10
2024-05-09T17:13:19.330Z,1.80
2024-05-09T17:15:48.437Z,1.80
2024-05-09T17:18:16.494Z,2.30
2024-05-09T17:20:44.285Z,2.00
2024-05-09T17:23:15.054Z,2.50
2024-05-09T17:25:43.437Z,1.80
2024-05-09T17:28:11.921Z,2.00
2024-05-09T17:30:42.000Z,1.90
2024-05-09T17:35:39.703Z,1.90
2024-05-09T17:38:08.211Z,2.40
2024-05-09T17:40:37.945Z,2.30
2024-05-09T17:43:09.762Z,1.80
2024-05-09T17:45:40.636Z,1.90
2024-05-09T17:50:38.388Z,1.90
2024-05-09T17:53:06.963Z,1.70
2024-05-09T17:55:36.027Z,1.90
2024-05-09T17:58:05.353Z,2.10
2024-05-09T18:00:39.026Z,1.90
2024-05-09T18:03:11.802Z,1.90
2024-05-09T18:05:41.620Z,2.00
2024-05-09T18:08:09.877Z,2.40
2024-05-09T18:10:40.411Z,2.10
2024-05-09T18:15:37.835Z,2.30
2024-05-09T18:18:06.968Z,2.40
2024-05-09T18:20:42.433Z,2.30
2024-05-09T18:23:16.172Z,2.50
2024-05-09T18:25:45.800Z,2.40
2024-05-09T18:28:14.142Z,2.60
2024-05-09T18:30:42.074Z,2.30
2024-05-09T18:33:11.279Z,2.60
2024-05-09T18:35:42.553Z,2.50
2024-05-09T18:40:39.466Z,2.40
2024-05-09T18:43:09.294Z,2.60
2024-05-09T18:45:38.448Z,2.70
2024-05-09T18:48:08.945Z,2.50
2024-05-09T18:50:40.007Z,2.60
2024-05-09T18:53:12.819Z,2.90
2024-05-09T18:55:44.712Z,2.30
2024-05-09T18:58:12.536Z,2.40
2024-05-09T19:00:42.903Z,2.40
2024-05-09T19:03:14.542Z,2.30
2024-05-09T19:05:45.006Z,2.20
2024-05-09T19:08:15.180Z,2.10
2024-05-09T19:10:45.379Z,2.30
2024-05-09T19:13:14.568Z,1.90
2024-05-09T19:15:43.789Z,2.00
2024-05-09T19:18:13.913Z,2.00
2024-05-09T19:20:45.205Z,2.20
2024-05-09T19:23:13.193Z,2.30
2024-05-09T19:25:41.065Z,2.20
2024-05-09T19:28:09.275Z,1.90
2024-05-09T19:30:41.111Z,2.00
2024-05-09T19:33:14.540Z,1.80
2024-05-09T19:35:43.499Z,1.70
2024-05-09T19:38:12.174Z,1.90
2024-05-09T19:40:40.355Z,1.80
2024-05-09T19:43:08.521Z,2.20
2024-05-09T19:45:36.831Z,2.10
2024-05-09T19:48:06.437Z,2.00
2024-05-09T19:50:41.547Z,2.40
2024-05-09T19:53:13.615Z,2.00
2024-05-09T19:55:42.171Z,2.50
2024-05-09T19:58:10.933Z,2.00
2024-05-09T20:00:41.679Z,1.90
2024-05-09T20:03:12.645Z,2.10
2024-05-09T20:05:46.276Z,2.10
2024-05-09T20:08:14.923Z,2.10
2024-05-09T20:10:42.949Z,2.40
2024-05-09T20:13:10.991Z,1.90
2024-05-09T20:15:39.800Z,2.00
2024-05-09T20:18:08.091Z,2.10
2024-05-09T20:20:40.221Z,2.60
2024-05-09T20:23:12.217Z,1.90
2024-05-09T20:25:40.675Z,1.90
2024-05-09T20:28:08.816Z,1.90
2024-05-09T20:30:37.021Z,2.10
2024-05-09T20:33:09.479Z,2.20
2024-05-09T20:35:38.011Z,2.00
2024-05-09T20:38:06.051Z,2.00
2024-05-09T20:40:37.671Z,2.00
2024-05-09T20:43:08.566Z,2.00
2024-05-09T20:45:36.784Z,1.90
2024-05-09T20:48:05.682Z,2.10
2024-05-09T20:50:39.242Z,2.00
2024-05-09T20:53:12.185Z,2.20
2024-05-09T20:55:40.840Z,1.90
2024-05-09T20:58:09.933Z,1.90
2024-05-09T21:00:41.992Z,2.00
2024-05-09T21:03:14.179Z,1.90
2024-05-09T21:08:10.979Z,2.50
2024-05-09T21:10:39.085Z,2.10
2024-05-09T21:13:07.544Z,2.20
2024-05-09T21:15:36.201Z,2.00
2024-05-09T21:18:04.946Z,2.30
2024-05-09T21:20:34.584Z,2.00
2024-05-09T21:23:03.411Z,2.10
2024-05-09T21:25:32.006Z,1.80
2024-05-09T21:28:00.751Z,2.00
2024-05-09T21:30:38.480Z,2.00
2024-05-09T21:33:14.756Z,2.00
2024-05-09T21:35:43.990Z,2.00
2024-05-09T21:38:14.379Z,2.20
2024-05-09T21:40:43.501Z,2.00
2024-05-09T21:43:11.471Z,2.00
2024-05-09T21:45:39.379Z,2.00
2024-05-09T21:48:08.006Z,2.30
2024-05-09T21:50:40.362Z,2.20
2024-05-09T21:53:11.876Z,2.00
2024-05-09T21:55:40.332Z,2.40
2024-05-09T21:58:08.352Z,2.10
2024-05-09T22:00:39.224Z,2.40
2024-05-09T22:03:09.038Z,2.10
2024-05-09T22:05:39.047Z,2.00
2024-05-09T22:08:07.594Z,2.10
2024-05-09T22:10:36.891Z,2.00
2024-05-09T22:13:06.485Z,2.40
2024-05-09T22:15:37.137Z,2.10
2024-05-09T22:18:07.316Z,2.20
2024-05-09T22:20:38.518Z,2.30
2024-05-09T22:23:08.452Z,2.20
2024-05-09T22:25:38.526Z,2.40
2024-05-09T22:28:07.154Z,2.40
2024-05-09T22:30:38.608Z,2.10
2024-05-09T22:33:09.939Z,2.30
2024-05-09T22:35:40.622Z,2.10
2024-05-09T22:38:09.004Z,2.10
2024-05-09T22:40:45.530Z,2.20
2024-05-09T22:43:21.531Z,2.40
2024-05-09T22:45:52.172Z,2.10
2024-05-09T22:48:20.391Z,2.30
2024-05-09T22:50:48.422Z,1.90
2024-05-09T22:53:16.413Z,1.90
2024-05-09T22:55:44.145Z,1.90
2024-05-09T22:58:12.019Z,2.10
2024-05-09T23:00:40.123Z,1.80
2024-05-09T23:03:08.375Z,2.20
2024-05-09T23:05:36.378Z,2.40
2024-05-09T23:08:04.418Z,2.10
2024-05-09T23:10:36.423Z,2.20
2024-05-09T23:13:07.463Z,2.00
2024-05-09T23:15:39.930Z,2.30
2024-05-09T23:18:08.255Z,2.10
2024-05-09T23:20:39.054Z,2.30
2024-05-09T23:23:09.970Z,2.10
2024-05-09T23:25:41.556Z,2.00
2024-05-09T23:28:10.801Z,2.30
2024-05-09T23:30:40.974Z,2.00
2024-05-09T23:33:14.675Z,2.20
2024-05-09T23:35:44.303Z,2.20
2024-05-09T23:38:13.044Z,2.00
2024-05-09T23:40:42.339Z,2.20
2024-05-09T23:43:11.890Z,2.30
2024-05-09T23:45:40.940Z,2.50
2024-05-09T23:48:09.379Z,2.30
2024-05-09T23:50:39.198Z,2.60
2024-05-09T23:55:37.840Z,2.70
2024-05-09T23:58:06.711Z,2.60
